Time;durP1;ratioP1;P1;durP2;ratioP2;P2;SDS_P1;SDS_P2;PMS_P1;PMS_P2;Temp;Humidity;BMP_temperature;BMP_pressure;BME280_temperature;BME280_humidity;BME280_pressure;Samples;Min_cycle;Max_cycle;Signal;HPM_P1;HPM_P2
2022/09/28 00:01:22;;;;;;;4.10;1.30;;;11.60;95.00;;;12.10;64.07;97029.81;4980482;28;122846;-72
2022/09/28 00:03:52;;;;;;;1.27;1.10;;;11.60;95.10;;;12.11;63.95;97027.84;4972466;28;124519;-71
2022/09/28 00:06:25;;;;;;;1.50;1.30;;;11.60;95.10;;;12.09;64.43;97003.31;4967085;28;112271;-70
2022/09/28 00:08:52;;;;;;;2.80;1.10;;;11.60;95.10;;;12.10;63.75;97009.66;4978226;28;116651;-71
2022/09/28 00:11:21;;;;;;;1.97;1.20;;;11.60;95.20;;;12.12;63.88;97008.13;4984906;28;123104;-74
2022/09/28 00:13:55;;;;;;;1.00;0.80;;;11.60;95.30;;;12.15;64.49;97003.81;4990792;28;124525;-71
2022/09/28 00:16:25;;;;;;;1.90;1.10;;;11.60;95.20;;;12.16;64.40;96986.81;4992720;28;115254;-71
2022/09/28 00:18:53;;;;;;;1.70;1.13;;;11.70;95.30;;;12.19;64.12;96979.75;4989236;28;115355;-73
2022/09/28 00:21:29;;;;;;;1.60;1.10;;;11.70;95.30;;;12.21;64.30;96979.41;4988929;28;125641;-71
2022/09/28 00:24:13;;;;;;;2.17;1.10;;;12.00;95.50;;;12.18;64.48;96983.69;4983448;28;123658;-71
2022/09/28 00:26:44;;;;;;;2.60;1.10;;;13.10;96.00;;;12.19;64.31;96970.66;4986974;28;114300;-70
2022/09/28 00:29:18;;;;;;;1.17;1.07;;;11.70;95.40;;;12.18;64.34;96961.56;4990848;28;113735;-70
2022/09/28 00:31:46;;;;;;;1.30;1.00;;;11.70;95.40;;;12.19;64.49;96960.38;4986184;28;124436;-70
2022/09/28 00:34:13;;;;;;;1.20;1.00;;;11.70;95.40;;;12.21;64.36;96962.78;4988663;28;124241;-70
2022/09/28 00:36:44;;;;;;;1.07;0.90;;;11.70;95.40;;;12.20;64.35;96948.16;4991264;28;114152;-70
2022/09/28 00:39:13;;;;;;;1.33;1.00;;;11.70;95.50;;;12.19;64.36;96952.06;4968244;28;113166;-70
2022/09/28 00:41:39;;;;;;;3.17;1.63;;;11.70;95.50;;;12.20;64.66;96939.00;4977413;28;124175;-71
2022/09/28 00:44:24;;;;;;;1.10;1.00;;;11.70;95.50;;;12.21;64.42;96938.66;4985907;28;124082;-70
2022/09/28 00:47:24;;;;;;;1.73;1.10;;;11.70;95.50;;;12.22;64.45;96926.41;4985382;28;114109;-71
2022/09/28 00:50:26;;;;;;;1.77;1.27;;;11.70;95.60;;;12.20;64.60;96926.00;4985816;28;114011;-70
2022/09/28 00:53:05;;;;;;;1.20;0.93;;;11.70;95.60;;;12.22;64.71;96912.56;4980391;28;123407;-70
2022/09/28 00:55:50;;;;;;;4.90;1.17;;;11.80;95.60;;;12.24;64.89;96901.91;4983959;28;123897;-71
2022/09/28 00:58:43;;;;;;;1.43;1.00;;;11.80;95.70;;;12.25;64.87;96895.22;4978316;28;114617;-70
2022/09/28 01:01:11;;;;;;;1.50;1.10;;;11.80;95.70;;;12.23;64.78;96889.25;4983068;28;113703;-71
2022/09/28 01:03:44;;;;;;;2.30;1.10;;;11.80;95.70;;;12.23;64.97;96878.19;4987563;28;123731;-71
2022/09/28 01:06:20;;;;;;;1.10;0.80;;;14.40;96.90;;;12.26;65.27;96877.44;4985788;28;123860;-71
2022/09/28 01:08:50;;;;;;;1.20;1.10;;;11.80;95.80;;;12.26;65.24;96879.41;4973698;28;115880;-70
2022/09/28 01:11:18;;;;;;;1.10;0.90;;;11.80;95.90;;;12.28;65.31;96871.53;4976853;28;114617;-70
2022/09/28 01:13:47;;;;;;;0.90;0.80;;;11.80;95.90;;;12.28;64.98;96861.25;4975503;28;124074;-70
2022/09/28 01:16:57;;;;;;;1.03;0.93;;;11.80;95.90;;;12.28;65.16;96861.25;4979795;28;123956;-70
2022/09/28 01:19:51;;;;;;;1.23;1.00;;;11.20;95.70;;;12.31;65.27;96854.97;4914579;28;114244;-71
2022/09/28 01:22:38;;;;;;;2.60;1.43;;;11.80;96.00;;;12.32;65.21;96851.03;4988568;28;114034;-70
2022/09/28 01:25:32;;;;;;;1.50;1.10;;;11.80;96.10;;;12.32;65.67;96855.78;4981310;28;123971;-70
2022/09/28 01:28:27;;;;;;;1.20;1.10;;;11.80;96.10;;;12.27;65.56;96840.25;4984263;28;123591;-71
2022/09/28 01:31:14;;;;;;;1.87;0.90;;;11.80;96.10;;;12.26;65.90;96833.13;4984447;28;114350;-70
2022/09/28 01:33:46;;;;;;;1.10;1.00;;;11.80;96.10;;;12.24;65.75;96829.94;4986588;28;113842;-70
2022/09/28 01:36:33;;;;;;;3.27;1.23;;;10.60;95.70;;;12.24;65.79;96827.16;4986620;28;123564;-70
2022/09/28 01:39:35;;;;;;;2.10;1.30;;;11.80;96.20;;;12.25;65.82;96823.25;4981830;28;123785;-70
2022/09/28 01:42:11;;;;;;;2.50;1.40;;;11.80;96.30;;;12.25;65.92;96805.81;4984877;28;114080;-70
2022/09/28 01:44:41;;;;;;;2.80;1.40;;;11.80;96.40;;;12.25;66.21;96814.13;4973754;28;113900;-70
2022/09/28 01:47:14;;;;;;;3.20;1.20;;;11.80;96.50;;;12.24;66.27;96807.78;4971310;28;124017;-69
2022/09/28 01:49:47;;;;;;;5.83;1.00;;;11.70;96.50;;;12.22;66.06;96810.13;4978716;28;122991;-69
2022/09/28 01:52:39;;;;;;;1.70;1.03;;;11.80;96.50;;;12.20;66.18;96793.09;4982976;28;114306;-69
2022/09/28 01:55:10;;;;;;;3.00;1.20;;;11.80;96.60;;;12.20;66.51;96800.59;4986694;28;113910;-70
2022/09/28 01:57:46;;;;;;;1.30;0.90;;;11.70;96.60;;;12.18;66.52;96787.13;4984464;28;123897;-70
2022/09/28 02:00:16;;;;;;;2.00;1.40;;;11.90;96.70;;;12.19;66.39;96780.41;4982425;28;123677;-70
2022/09/28 02:02:57;;;;;;;2.00;0.90;;;11.70;96.70;;;12.19;66.75;96774.88;4946805;28;115214;-70
2022/09/28 02:05:33;;;;;;;4.57;1.30;;;11.70;96.80;;;12.18;66.85;96778.81;4979599;28;114874;-70
2022/09/28 02:08:20;;;;;;;3.47;1.13;;;11.70;96.90;;;12.20;66.81;96781.22;4987912;28;124277;-70
2022/09/28 02:11:14;;;;;;;2.17;0.90;;;11.70;96.90;;;12.18;66.94;96773.28;4978206;28;123719;-70
2022/09/28 02:13:53;;;;;;;1.30;1.10;;;11.70;97.00;;;12.18;66.87;96762.22;4988126;28;113977;-70
2022/09/28 02:16:30;;;;;;;7.00;1.50;;;11.90;97.00;;;12.21;66.95;96750.41;4981295;28;114060;-70
2022/09/28 02:18:57;;;;;;;2.80;1.30;;;11.80;97.00;;;12.22;67.02;96748.41;4983425;28;123893;-70
2022/09/28 02:21:58;;;;;;;4.57;1.10;;;11.80;97.00;;;12.22;66.80;96763.06;4983275;28;123850;-70
2022/09/28 02:24:55;;;;;;;7.30;1.40;;;11.80;97.00;;;12.22;67.12;96757.50;4981752;28;115092;-70
2022/09/28 02:27:38;;;;;;;2.13;1.10;;;11.80;97.10;;;12.23;67.39;96753.59;4987937;28;114044;-70
2022/09/28 02:30:06;;;;;;;2.17;1.13;;;11.80;97.10;;;12.24;66.93;96752.41;4985514;28;124111;-70
2022/09/28 02:32:39;;;;;;;3.23;1.30;;;11.80;97.10;;;12.28;66.94;96746.94;4982135;28;124084;-70
2022/09/28 02:35:10;;;;;;;2.70;1.40;;;11.80;97.10;;;12.31;66.88;96732.34;4990042;28;114863;-70
2022/09/28 02:37:38;;;;;;;2.40;1.20;;;11.90;97.20;;;12.32;66.84;96739.47;4981776;28;112935;-70
2022/09/28 02:40:23;;;;;;;2.80;1.33;;;11.90;97.20;;;12.34;66.96;96726.84;4985853;28;124244;-70
2022/09/28 02:43:23;;;;;;;3.43;1.20;;;11.90;97.20;;;12.34;67.29;96726.06;4989396;28;123628;-71
2022/09/28 02:46:36;;;;;;;2.33;1.30;;;11.90;97.20;;;12.30;67.24;96731.53;4986912;28;114279;-70
2022/09/28 02:49:36;;;;;;;4.37;1.30;;;11.90;97.20;;;12.30;67.04;96720.44;4969106;28;114638;-70
2022/09/28 02:53:01;;;;;;;2.87;1.70;;;11.90;97.20;;;12.28;67.48;96722.03;4949427;28;124203;-70
2022/09/28 02:55:55;;;;;;;2.70;1.10;;;11.90;97.30;;;12.27;67.67;96721.19;4968072;28;123898;-70
2022/09/28 02:59:00;;;;;;;1.93;1.13;;;11.90;97.40;;;12.28;67.49;96722.03;4953470;28;115218;-70
2022/09/28 03:01:51;;;;;;;3.17;1.33;;;11.90;97.40;;;12.29;67.96;96713.31;4964293;28;114650;-70
2022/09/28 03:04:30;;;;;;;5.80;1.63;;;11.90;97.40;;;12.30;67.69;96705.81;4966952;28;124235;-71
2022/09/28 03:07:24;;;;;;;3.30;1.30;;;11.90;97.40;;;12.31;67.82;96716.53;4969053;28;123550;-70
2022/09/28 03:10:27;;;;;;;3.60;1.23;;;11.90;97.50;;;12.33;67.71;96710.59;4950746;28;114497;-70
2022/09/28 03:12:55;;;;;;;6.70;1.40;;;12.00;97.60;;;12.31;67.82;96705.44;4963629;28;114354;-70
2022/09/28 03:15:29;;;;;;;2.20;1.33;;;11.90;97.60;;;12.31;68.13;96699.13;4951246;28;123914;-70
2022/09/28 03:17:57;;;;;;;2.77;1.40;;;11.90;97.70;;;12.29;68.04;96696.72;4962968;28;124369;-69
2022/09/28 03:20:27;;;;;;;3.17;1.37;;;11.90;97.70;;;12.30;68.12;96695.53;4953254;28;114194;-69
2022/09/28 03:22:53;;;;;;;3.37;1.20;;;11.90;97.70;;;12.29;68.21;96688.41;4935150;28;113133;-69
2022/09/28 03:25:21;;;;;;;5.10;2.50;;;11.90;97.70;;;12.31;67.87;96699.91;4943076;28;124771;-70
2022/09/28 03:27:47;;;;;;;4.00;1.40;;;11.90;97.80;;;12.30;68.01;96680.88;4943339;28;123848;-69
2022/09/28 03:30:14;;;;;;;4.43;1.60;;;12.00;97.90;;;12.32;68.11;96693.19;4935919;28;114053;-70
2022/09/28 03:32:40;;;;;;;4.57;1.83;;;11.90;97.80;;;12.33;68.07;96697.56;4940285;28;112919;-69
2022/09/28 03:35:08;;;;;;;3.23;1.40;;;11.90;97.80;;;12.34;68.13;96693.63;4947212;28;123894;-69
2022/09/28 03:37:35;;;;;;;3.83;1.30;;;11.90;97.90;;;12.35;68.14;96697.97;4964389;28;123727;-69
2022/09/28 03:40:03;;;;;;;6.63;1.80;;;11.90;97.90;;;12.37;68.29;96703.16;4965124;28;114252;-69
2022/09/28 03:42:34;;;;;;;3.23;1.23;;;12.00;97.90;;;12.37;67.85;96703.94;4953501;28;114249;-69
2022/09/28 03:45:00;;;;;;;3.00;1.30;;;12.00;97.80;;;12.36;68.30;96702.34;4950496;28;124340;-70
2022/09/28 03:47:27;;;;;;;1.53;1.17;;;11.90;97.90;;;12.36;68.28;96713.44;4949936;28;122847;-69
2022/09/28 03:49:53;;;;;;;4.50;1.87;;;11.90;98.00;;;12.34;68.56;96713.00;4943879;28;115175;-70
2022/09/28 03:52:20;;;;;;;3.77;1.40;;;12.00;98.00;;;12.33;68.38;96711.41;4951707;28;114232;-71
2022/09/28 03:54:46;;;;;;;5.07;1.50;;;11.90;98.00;;;12.33;68.38;96716.94;4941922;28;124276;-70
2022/09/28 03:57:13;;;;;;;7.10;1.53;;;11.90;98.10;;;12.33;68.90;96725.25;4947069;28;123898;-71
2022/09/28 03:59:39;;;;;;;3.50;1.30;;;12.10;98.20;;;12.36;68.60;96735.59;4949120;28;114946;-71
2022/09/28 04:02:07;;;;;;;6.87;1.50;;;12.00;98.40;;;12.41;68.81;96725.34;4949017;28;113864;-71
2022/09/28 04:04:33;;;;;;;1.90;1.20;;;12.00;98.20;;;12.45;68.74;96728.97;4933402;28;124825;-71
2022/09/28 04:06:59;;;;;;;1.30;1.03;;;12.00;98.40;;;12.46;68.83;96733.31;4950499;28;122991;-71
2022/09/28 04:09:26;;;;;;;2.43;1.30;;;12.00;98.30;;;12.45;68.46;96738.06;4948664;28;114381;-71
2022/09/28 04:11:52;;;;;;;2.60;0.90;;;12.00;98.20;;;12.49;68.68;96735.34;4952430;28;113948;-71
2022/09/28 04:14:20;;;;;;;2.07;1.00;;;12.00;98.10;;;12.47;68.11;96729.41;4983794;28;124176;-71
2022/09/28 04:16:46;;;;;;;3.50;1.57;;;12.00;98.00;;;12.40;68.37;96729.28;4971175;28;123903;-70
2022/09/28 04:19:14;;;;;;;2.80;1.20;;;12.00;97.90;;;12.35;68.35;96727.63;4984440;28;116210;-71
2022/09/28 04:21:40;;;;;;;1.67;0.80;;;12.00;97.90;;;12.35;68.27;96728.44;4983854;28;113976;-71
2022/09/28 04:24:09;;;;;;;1.60;1.00;;;12.00;97.90;;;12.34;68.32;96728.81;4971938;28;123452;-71
2022/09/28 04:26:35;;;;;;;2.20;1.03;;;12.00;97.80;;;12.32;68.06;96731.94;4982500;28;124101;-71
2022/09/28 04:29:17;;;;;;;1.37;0.90;;;12.00;97.80;;;12.31;68.22;96732.34;4986346;28;114437;-71
2022/09/28 04:31:51;;;;;;;1.83;0.80;;;11.90;97.70;;;12.26;67.78;96724.34;4971120;28;114080;-71
2022/09/28 04:34:20;;;;;;;1.60;1.13;;;11.90;97.60;;;12.23;67.86;96736.19;4980478;28;124565;-71
2022/09/28 04:36:48;;;;;;;1.43;0.93;;;11.90;97.60;;;12.20;67.73;96726.66;4978772;28;123905;-71
2022/09/28 04:39:16;;;;;;;0.90;0.80;;;13.30;98.20;;;12.21;67.71;96730.22;4977111;28;115165;-70
2022/09/28 04:41:43;;;;;;;1.20;0.90;;;11.90;97.50;;;12.22;67.94;96729.03;4989491;28;114930;-71
2022/09/28 04:44:09;;;;;;;1.83;1.03;;;11.90;97.50;;;12.22;67.79;96735.38;4987265;28;124018;-71
2022/09/28 04:46:36;;;;;;;1.10;1.00;;;11.90;97.50;;;12.24;67.77;96729.47;5002683;28;123126;-71
2022/09/28 04:49:03;;;;;;;1.63;1.20;;;11.90;97.50;;;12.23;67.60;96745.28;4984601;28;114454;-70
2022/09/28 04:51:32;;;;;;;1.80;1.00;;;12.10;97.50;;;12.22;67.48;96743.66;4982350;28;114015;-69
2022/09/28 04:53:59;;;;;;;2.23;1.20;;;11.90;97.40;;;12.22;67.69;96745.66;4978483;28;123285;-69
2022/09/28 04:56:26;;;;;;;1.87;1.17;;;11.90;97.40;;;12.21;67.53;96742.09;4984292;28;123814;-70
2022/09/28 04:58:53;;;;;;;2.40;1.10;;;11.80;97.40;;;12.23;67.64;96747.25;4984562;28;113460;-70
2022/09/28 05:01:22;;;;;;;1.37;1.00;;;11.90;97.40;;;12.23;67.61;96753.59;4960905;28;113941;-70
2022/09/28 05:03:49;;;;;;;3.97;1.03;;;11.90;97.40;;;12.25;67.59;96742.13;4978678;28;122889;-70
2022/09/28 05:06:16;;;;;;;2.30;1.30;;;11.90;97.40;;;12.24;67.75;96738.56;4968311;28;123804;-70
2022/09/28 05:08:45;;;;;;;3.33;1.37;;;11.90;97.40;;;12.27;67.64;96734.25;4976426;28;114144;-71
2022/09/28 05:11:13;;;;;;;1.43;0.90;;;12.00;97.50;;;12.29;67.20;96743.00;4998824;28;114702;-69
2022/09/28 05:13:44;;;;;;;2.03;1.40;;;11.90;97.40;;;12.33;67.50;96743.81;4981945;28;123957;-69
2022/09/28 05:16:14;;;;;;;2.27;1.40;;;11.90;97.50;;;12.33;67.30;96747.41;4980346;28;123782;-70
2022/09/28 05:18:41;;;;;;;3.67;1.20;;;12.50;97.70;;;12.35;67.39;96733.97;4976488;28;114466;-70
2022/09/28 05:21:13;;;;;;;2.10;1.10;;;11.90;97.50;;;12.37;67.46;96737.16;4985149;28;114451;-70
2022/09/28 05:23:45;;;;;;;1.50;1.10;;;11.90;97.50;;;12.38;67.21;96747.09;4977597;28;124057;-70
2022/09/28 05:26:12;;;;;;;1.00;0.90;;;11.90;97.50;;;12.38;67.06;96743.50;4984621;28;123832;-69
2022/09/28 05:28:39;;;;;;;2.23;1.10;;;11.90;97.40;;;12.37;67.18;96753.78;4980111;28;114620;-69
2022/09/28 05:31:05;;;;;;;1.80;0.97;;;11.90;97.40;;;12.37;67.39;96755.75;4976927;28;114963;-69
2022/09/28 05:33:33;;;;;;;1.50;1.20;;;11.90;97.40;;;12.35;67.04;96745.03;4981315;28;123928;-70
2022/09/28 05:36:00;;;;;;;2.00;1.30;;;12.00;97.40;;;12.35;67.25;96739.50;4975333;28;123944;-70
2022/09/28 05:38:26;;;;;;;2.50;1.00;;;11.90;97.40;;;12.35;67.16;96745.03;4982151;28;114251;-70
2022/09/28 05:40:53;;;;;;;2.10;1.00;;;11.90;97.40;;;12.36;67.17;96746.66;4975312;28;112714;-70
2022/09/28 05:43:19;;;;;;;1.83;1.10;;;11.90;97.40;;;12.38;67.06;96752.63;4981123;28;124249;-70
2022/09/28 05:45:46;;;;;;;1.10;0.90;;;11.90;97.40;;;12.39;66.96;96753.41;4976266;28;122885;-69
2022/09/28 05:48:13;;;;;;;1.20;0.93;;;11.90;97.30;;;12.38;67.04;96758.16;4976665;28;114332;-69
2022/09/28 05:50:39;;;;;;;1.60;0.90;;;12.60;97.50;;;12.38;66.85;96755.41;4971203;28;114702;-70
2022/09/28 05:53:08;;;;;;;1.67;1.00;;;11.90;97.20;;;12.38;66.75;96760.94;4979005;28;124075;-70
2022/09/28 05:55:36;;;;;;;1.30;0.90;;;11.90;97.30;;;12.42;66.65;96765.72;4976417;28;123296;-70
2022/09/28 05:58:06;;;;;;;4.37;1.53;;;11.90;97.20;;;12.40;66.76;96762.53;4982565;28;113391;-73
2022/09/28 06:00:34;;;;;;;2.63;1.50;;;12.00;97.30;;;12.40;66.74;96768.06;4982951;28;113111;-70
2022/09/28 06:03:04;;;;;;;2.17;1.30;;;12.00;97.20;;;12.40;66.71;96773.59;4975360;28;124050;-69
2022/09/28 06:05:34;;;;;;;1.30;1.07;;;12.00;97.20;;;12.37;66.75;96775.94;4977634;28;123898;-70
2022/09/28 06:08:05;;;;;;;1.30;1.00;;;11.90;97.20;;;12.35;66.97;96778.28;4973942;28;114782;-71
2022/09/28 06:10:33;;;;;;;2.23;1.10;;;11.90;97.20;;;12.42;67.75;96771.25;4983308;28;114031;-73
2022/09/28 06:12:59;;;;;;;1.60;1.30;;;11.90;97.50;;;12.52;67.67;96773.34;4986095;28;124031;-73
2022/09/28 06:15:29;;;;;;;3.87;1.10;;;12.00;97.70;;;12.56;67.05;96777.78;4986097;28;124442;-72
2022/09/28 06:18:01;;;;;;;2.23;1.10;;;12.00;97.60;;;12.61;67.22;96771.13;4981484;28;115031;-73
2022/09/28 06:20:32;;;;;;;2.80;1.13;;;12.10;97.70;;;12.63;67.17;96771.56;4966966;28;113093;-72
2022/09/28 06:22:58;;;;;;;2.10;1.33;;;12.10;97.70;;;12.67;67.24;96779.91;4979950;28;124286;-73
2022/09/28 06:25:26;;;;;;;1.90;1.30;;;12.10;97.70;;;12.71;67.31;96778.78;4975634;28;123795;-70
2022/09/28 06:28:08;;;;;;;2.53;1.10;;;12.20;97.70;;;12.77;67.09;96782.81;4971743;28;114394;-70
2022/09/28 06:30:38;;;;;;;2.40;1.03;;;12.20;97.70;;;12.77;67.01;96782.81;4971295;28;114357;-70
2022/09/28 06:33:07;;;;;;;2.17;1.20;;;12.20;97.60;;;12.77;66.97;96788.34;4973449;28;124548;-70
2022/09/28 06:35:34;;;;;;;1.87;1.10;;;12.30;97.50;;;12.77;66.91;96793.09;4960582;28;122148;-70
2022/09/28 06:38:01;;;;;;;4.10;1.80;;;12.30;97.50;;;12.77;66.59;96799.44;4987268;28;114130;-70
2022/09/28 06:40:28;;;;;;;2.57;1.30;;;12.30;97.50;;;12.76;66.57;96788.72;4985638;28;113829;-69
2022/09/28 06:43:24;;;;;;;1.97;1.00;;;12.20;97.40;;;12.76;66.58;96803.41;4971230;28;124723;-69
2022/09/28 06:45:55;;;;;;;2.47;1.33;;;12.30;97.40;;;12.72;66.42;96802.53;4987304;28;122914;-70
2022/09/28 06:48:22;;;;;;;1.63;1.20;;;12.30;97.30;;;12.72;66.61;96802.53;4984181;28;114410;-71
2022/09/28 06:50:49;;;;;;;1.47;1.30;;;12.20;97.30;;;12.72;66.55;96799.75;4982783;28;113444;-69
2022/09/28 06:53:16;;;;;;;1.67;1.27;;;12.30;97.30;;;12.69;66.58;96803.28;4988236;28;123825;-70
2022/09/28 06:55:47;;;;;;;1.50;1.20;;;12.90;97.50;;;12.70;66.53;96813.19;4972270;28;123968;-72
2022/09/28 06:58:19;;;;;;;1.97;1.20;;;12.30;97.20;;;12.72;66.37;96812.81;4978294;28;114922;-74
2022/09/28 07:00:48;;;;;;;1.50;1.30;;;12.30;97.20;;;12.71;66.59;96811.25;4978560;28;114403;-70
2022/09/28 07:03:19;;;;;;;1.80;1.20;;;12.30;97.20;;;12.72;66.69;96824.69;4983308;28;124610;-70
2022/09/28 07:05:52;;;;;;;2.50;1.20;;;12.30;97.20;;;12.73;66.46;96831.81;4973545;28;123664;-70
2022/09/28 07:08:23;;;;;;;2.40;1.23;;;12.30;97.20;;;12.72;66.63;96841.31;4985205;28;114701;-72
2022/09/28 07:10:57;;;;;;;3.70;1.80;;;12.30;97.20;;;12.68;66.91;96834.94;4969147;28;114084;-69
2022/09/28 07:13:29;;;;;;;3.10;1.40;;;12.20;97.20;;;12.65;66.83;96845.97;4980807;28;123821;-70
2022/09/28 07:15:58;;;;;;;2.20;1.37;;;12.30;97.30;;;12.63;66.96;96851.91;4975602;28;125697;-70
2022/09/28 07:18:25;;;;;;;4.20;1.83;;;12.20;97.30;;;12.60;66.89;96855.41;4973348;28;114491;-70
2022/09/28 07:20:52;;;;;;;6.10;1.80;;;12.20;97.30;;;12.58;67.16;96849.44;4973735;28;113813;-70
2022/09/28 07:23:18;;;;;;;3.07;1.70;;;12.20;97.30;;;12.58;67.14;96853.00;4970973;28;123983;-69
2022/09/28 07:25:46;;;;;;;3.77;1.53;;;13.40;97.90;;;12.56;67.06;96855.34;4983447;28;123602;-69
2022/09/28 07:28:13;;;;;;;7.37;1.60;;;12.20;97.40;;;12.54;67.39;96857.69;4970972;28;114756;-70
2022/09/28 07:30:42;;;;;;;4.00;1.70;;;12.10;97.40;;;12.52;67.14;96859.22;4980446;28;114316;-69
2022/09/28 07:33:13;;;;;;;1.90;1.40;;;12.10;97.40;;;12.53;67.01;96864.41;4981673;28;125886;-70
2022/09/28 07:35:41;;;;;;;6.97;1.83;;;12.10;97.40;;;12.55;67.28;96869.59;4973280;28;123831;-70
2022/09/28 07:38:09;;;;;;;3.57;1.20;;;12.10;97.40;;;12.58;66.87;96874.38;4975116;28;114549;-70
2022/09/28 07:43:21;;;;;;;3.40;1.80;;;12.20;97.40;;;12.57;67.05;96881.06;4985288;28;124647;-70
2022/09/28 07:45:51;;;;;;;2.50;1.43;;;12.10;97.30;;;12.56;66.83;96887.78;4970958;28;123835;-70
2022/09/28 07:48:17;;;;;;;1.83;1.23;;;12.20;97.20;;;12.53;66.73;96886.56;4979807;28;114239;-70
2022/09/28 07:50:52;;;;;;;5.53;2.10;;;12.20;97.20;;;12.51;66.76;96890.88;4979127;28;113612;-71
2022/09/28 07:53:23;;;;;;;2.70;1.53;;;12.10;97.10;;;12.52;66.87;96886.94;4977578;28;124565;-70
2022/09/28 07:56:00;;;;;;;2.00;1.33;;;12.10;97.10;;;12.55;66.39;96880.66;4978084;28;124186;-70
2022/09/28 07:58:28;;;;;;;2.83;1.63;;;12.10;97.10;;;12.55;66.29;96897.28;4972784;28;115818;-70
2022/09/28 08:00:54;;;;;;;4.23;1.90;;;12.10;97.00;;;12.58;66.27;96897.34;4974626;28;114913;-70
2022/09/28 08:03:21;;;;;;;4.00;1.90;;;12.10;97.00;;;12.62;66.23;96886.28;4972540;28;123898;-69
2022/09/28 08:05:48;;;;;;;2.10;1.30;;;12.20;97.00;;;12.66;66.23;96892.69;4981608;28;122716;-70
2022/09/28 08:08:15;;;;;;;3.93;1.70;;;12.30;97.10;;;12.70;66.05;96888.00;4972673;28;113851;-70
2022/09/28 08:10:43;;;;;;;2.33;1.50;;;12.20;97.00;;;12.74;66.17;96905.50;4979964;28;114092;-70
2022/09/28 08:13:09;;;;;;;2.27;1.70;;;12.30;97.00;;;12.76;66.07;96907.88;4972155;28;124298;-72
2022/09/28 08:15:35;;;;;;;3.37;1.50;;;12.40;96.90;;;12.78;65.91;96911.06;4976423;28;122884;-70
2022/09/28 08:18:03;;;;;;;4.47;1.80;;;12.30;96.90;;;12.78;65.79;96917.41;4985700;28;114267;-72
2022/09/28 08:23:17;;;;;;;6.30;1.97;;;12.40;96.70;;;12.76;65.82;96919.78;4982271;28;124569;-71
2022/09/28 08:25:48;;;;;;;4.83;2.00;;;12.30;96.70;;;12.76;65.59;96914.22;4978376;28;123796;-70
2022/09/28 08:28:16;;;;;;;3.93;1.80;;;12.30;96.50;;;12.77;65.45;96915.03;4983602;28;116445;-71
2022/09/28 08:30:44;;;;;;;2.40;1.60;;;12.30;96.50;;;12.79;65.61;96918.22;4962535;28;114097;-71
2022/09/28 08:33:12;;;;;;;3.30;1.57;;;12.40;96.50;;;12.81;65.19;96930.53;4976467;28;124359;-69
2022/09/28 08:35:40;;;;;;;4.00;1.60;;;13.00;96.80;;;12.86;65.04;96925.84;4989881;28;123279;-70
2022/09/28 08:38:08;;;;;;;2.80;1.50;;;12.40;96.50;;;12.93;65.10;96931.50;4969221;28;112227;-70
2022/09/28 08:40:47;;;;;;;2.50;1.53;;;12.40;96.50;;;13.03;65.15;96930.84;4962350;28;114168;-70
2022/09/28 08:43:46;;;;;;;5.73;2.53;;;12.50;96.50;;;13.13;64.86;96935.72;4983176;28;123840;-69
2022/09/28 08:46:16;;;;;;;3.50;1.60;;;12.70;96.50;;;13.19;64.52;96933.44;4965849;28;124193;-70
2022/09/28 08:49:17;;;;;;;4.00;1.50;;;12.60;96.30;;;13.25;64.31;96941.06;4981697;28;115277;-70
2022/09/28 08:52:01;;;;;;;2.40;1.77;;;12.70;96.20;;;13.30;63.82;96948.28;4964901;28;115290;-70
2022/09/28 08:54:35;;;;;;;5.37;1.97;;;12.80;96.10;;;13.32;63.85;96947.91;4961938;28;124654;-71
2022/09/28 08:57:17;;;;;;;3.90;1.70;;;12.80;96.00;;;13.34;63.76;96953.88;4947689;28;123796;-70
2022/09/28 08:59:54;;;;;;;3.53;1.50;;;12.90;95.90;;;13.34;63.51;96963.00;4957362;28;114111;-69
2022/09/28 09:02:34;;;;;;;1.60;1.40;;;12.80;95.70;;;13.35;63.21;96963.78;4951157;28;114632;-70
2022/09/28 09:05:14;;;;;;;2.43;1.40;;;12.90;95.60;;;13.38;63.27;96965.81;4970507;28;124549;-69
2022/09/28 09:08:04;;;;;;;2.00;1.50;;;12.90;95.60;;;13.38;62.84;96958.31;4961148;28;123777;-69
2022/09/28 09:10:48;;;;;;;3.30;1.80;;;12.90;95.20;;;13.37;62.59;96964.22;4978980;28;113692;-69
2022/09/28 09:13:30;;;;;;;4.70;1.70;;;12.90;95.20;;;13.38;62.64;96968.56;4960838;28;112959;-70
2022/09/28 09:16:18;;;;;;;3.73;1.60;;;12.90;95.10;;;13.38;62.37;96974.13;4974060;28;124301;-70
2022/09/28 09:18:54;;;;;;;4.83;2.20;;;12.90;94.90;;;13.40;62.13;96971.78;4978036;28;124142;-71
2022/09/28 09:21:56;;;;;;;3.87;1.80;;;12.90;94.90;;;13.42;61.88;96978.56;4981157;28;114181;-71
2022/09/28 09:24:47;;;;;;;2.17;1.50;;;13.00;94.70;;;13.44;61.30;96986.50;4965593;28;114003;-71
2022/09/28 09:27:33;;;;;;;4.33;1.80;;;13.00;94.40;;;13.44;60.95;96980.97;4980134;28;123249;-72
2022/09/28 09:30:10;;;;;;;4.83;1.80;;;13.00;94.20;;;13.43;60.58;96996.81;4987064;28;124279;-70
2022/09/28 09:32:52;;;;;;;1.73;1.40;;;13.00;94.00;;;13.40;60.77;96993.97;4980509;28;114408;-70
2022/09/28 09:35:38;;;;;;;3.77;1.70;;;13.00;94.00;;;13.39;60.73;96990.41;4998681;28;114063;-70
2022/09/28 09:38:51;;;;;;;4.80;1.80;;;13.10;94.00;;;13.37;60.96;96994.72;4983538;28;124157;-69
2022/09/28 09:41:48;;;;;;;4.10;1.80;;;13.00;93.90;;;13.36;60.73;96998.69;4979320;28;123672;-69
2022/09/28 09:44:59;;;;;;;3.10;2.00;;;13.00;93.80;;;13.39;60.91;97001.50;4981602;28;115290;-70
2022/09/28 09:47:58;;;;;;;2.43;1.40;;;13.00;93.90;;;13.41;60.57;96996.38;4969635;28;114928;-69
2022/09/28 09:50:31;;;;;;;3.30;1.73;;;13.00;93.70;;;13.43;60.41;97002.38;4976850;28;125118;-70
2022/09/28 09:53:37;;;;;;;6.40;2.20;;;13.00;93.70;;;13.44;60.58;97008.69;4975490;28;123494;-70
2022/09/28 09:56:33;;;;;;;2.13;1.47;;;13.00;93.60;;;13.45;60.24;97010.28;4977579;28;114196;-70
2022/09/28 09:59:32;;;;;;;4.13;2.10;;;13.10;93.50;;;13.48;60.00;97013.09;4978895;28;113890;-69
2022/09/28 10:02:12;;;;;;;3.77;1.80;;;13.10;93.30;;;13.52;59.20;97004.84;4971543;28;124048;-69
2022/09/28 10:04:45;;;;;;;2.37;1.53;;;13.10;93.10;;;13.53;59.17;97006.44;4979409;28;123595;-70
2022/09/28 10:07:59;;;;;;;5.83;1.90;;;13.10;93.00;;;13.55;59.39;97009.66;4963634;28;113376;-69
2022/09/28 10:10:34;;;;;;;4.90;1.73;;;13.10;93.20;;;13.60;59.11;97012.09;4965321;28;113117;-69
2022/09/28 10:13:02;;;;;;;3.03;2.07;;;13.20;93.00;;;13.58;58.42;97003.34;4981945;28;124042;-70
2022/09/28 10:15:32;;;;;;;4.03;2.03;;;13.20;92.60;;;13.59;58.42;97002.16;4981471;28;122858;-70
2022/09/28 10:18:10;;;;;;;1.73;1.40;;;13.20;92.80;;;13.60;58.44;97000.19;4974340;28;114859;-69
2022/09/28 10:20:40;;;;;;;5.47;1.87;;;13.20;92.60;;;13.61;58.03;96999.81;4975165;28;114588;-69
2022/09/28 10:23:28;;;;;;;4.00;2.40;;;13.20;92.30;;;13.60;57.95;96998.22;4971862;28;126279;-70
2022/09/28 10:26:36;;;;;;;5.73;2.20;;;13.20;92.20;;;13.60;58.04;96995.44;4979305;28;124271;-69
2022/09/28 10:29:11;;;;;;;3.40;1.57;;;13.20;92.10;;;13.68;58.27;96990.78;4962751;28;114310;-68
2022/09/28 10:31:47;;;;;;;3.97;1.80;;;13.20;92.30;;;13.70;58.03;96994.78;4978465;28;114742;-71
2022/09/28 10:34:18;;;;;;;2.70;1.63;;;13.30;92.30;;;13.75;57.95;96998.38;4982522;28;124165;-71
2022/09/28 10:36:50;;;;;;;3.00;1.80;;;13.30;92.10;;;13.77;58.15;96993.25;4986083;28;122836;-70
2022/09/28 10:39:32;;;;;;;3.90;2.53;;;14.00;92.50;;;13.79;57.71;96996.47;4983901;28;115271;-70
2022/09/28 10:42:05;;;;;;;3.00;1.47;;;13.40;92.00;;;13.85;57.91;97006.06;4991587;27;115026;-69
2022/09/28 10:44:54;;;;;;;10.40;1.87;;;13.40;92.10;;;13.97;57.61;97005.00;4970484;28;122987;-68
2022/09/28 10:47:24;;;;;;;2.70;1.53;;;13.50;92.10;;;14.03;57.13;97007.06;4979831;28;123225;-69
2022/09/28 10:49:53;;;;;;;2.50;2.00;;;14.30;92.10;;;14.09;56.93;96997.22;4976338;28;114410;-68
2022/09/28 10:52:35;;;;;;;4.50;1.77;;;13.60;91.90;;;14.16;56.32;96999.28;4980373;28;114111;-68